createdAt,value
2018-09-17T00:00:28.498Z,1015.15
2018-09-17T00:02:28.953Z,1015.17
2018-09-17T00:03:28.925Z,1015.16
2018-09-17T00:05:30.314Z,1015.17
2018-09-17T00:06:29.388Z,1015.18
2018-09-17T00:08:29.837Z,1015.17
2018-09-17T00:09:30.373Z,1015.12
2018-09-17T00:11:31.284Z,1015.15
2018-09-17T00:12:30.809Z,1015.15
2018-09-17T00:14:31.724Z,1015.15
2018-09-17T00:15:30.725Z,1015.14
2018-09-17T00:17:31.675Z,1015.15
2018-09-17T00:18:31.124Z,1015.19
2018-09-17T00:20:32.084Z,1015.20
2018-09-17T00:21:31.589Z,1015.18
2018-09-17T00:23:32.522Z,1015.15
2018-09-17T00:24:32.019Z,1015.21
2018-09-17T00:26:32.975Z,1015.17
2018-09-17T00:27:32.973Z,1015.20
2018-09-17T00:29:36.937Z,1015.23
2018-09-17T00:30:36.414Z,1015.25
2018-09-17T00:32:36.893Z,1015.26
2018-09-17T00:33:37.363Z,1015.22
2018-09-17T00:35:33.783Z,1015.21
2018-09-17T00:36:33.801Z,1015.16
2018-09-17T00:38:36.269Z,1015.21
2018-09-17T00:39:35.784Z,1015.20
2018-09-17T00:41:31.082Z,1015.20
2018-09-17T00:42:31.112Z,1015.20
2018-09-17T00:44:29.502Z,1015.19
2018-09-17T00:45:30.001Z,1015.20
2018-09-17T00:47:30.900Z,1015.14
2018-09-17T00:48:30.887Z,1015.11
2018-09-17T00:50:36.905Z,1015.05
2018-09-17T00:52:56.146Z,1015.04
2018-09-17T00:53:56.627Z,1015.03
2018-09-17T00:55:56.620Z,1015.03
2018-09-17T00:56:56.563Z,1015.02
2018-09-17T00:58:57.045Z,1015.08
2018-09-17T00:59:57.036Z,1015.12
2018-09-17T01:02:57.451Z,1015.18
2018-09-17T01:04:57.963Z,1015.21
2018-09-17T01:05:57.889Z,1015.20
2018-09-17T01:07:58.360Z,1015.23
2018-09-17T01:08:58.340Z,1015.26
2018-09-17T01:10:59.787Z,1015.31
2018-09-17T01:11:58.747Z,1015.33
2018-09-17T01:15:00.716Z,1015.36
2018-09-17T01:17:00.938Z,1015.42
2018-09-17T01:18:00.919Z,1015.47
2018-09-17T01:20:00.867Z,1015.46
2018-09-17T01:21:00.960Z,1015.47
2018-09-17T01:23:02.310Z,1015.51
2018-09-17T01:24:01.277Z,1015.43
2018-09-17T01:26:01.771Z,1015.47
2018-09-17T01:27:02.263Z,1015.48
2018-09-17T01:29:02.209Z,1015.47
2018-09-17T01:30:02.151Z,1015.47
2018-09-17T01:32:03.114Z,1015.43
2018-09-17T01:33:02.623Z,1015.46
2018-09-17T01:35:04.153Z,1015.47
2018-09-17T01:36:03.624Z,1015.52
2018-09-17T01:38:01.525Z,1015.48
2018-09-17T01:39:02.079Z,1015.50
2018-09-17T01:41:01.584Z,1015.51
2018-09-17T01:42:01.573Z,1015.54
2018-09-17T01:43:59.556Z,1015.48
2018-09-17T01:44:59.503Z,1015.44
2018-09-17T01:47:00.989Z,1015.41
2018-09-17T01:48:00.472Z,1015.37
2018-09-17T01:50:00.440Z,1015.36
2018-09-17T01:51:00.424Z,1015.39
2018-09-17T01:53:00.832Z,1015.42
2018-09-17T01:54:00.835Z,1015.44
2018-09-17T01:56:01.339Z,1015.47
2018-09-17T01:57:01.306Z,1015.51
2018-09-17T01:59:02.253Z,1015.50
2018-09-17T02:00:01.717Z,1015.53
2018-09-17T02:02:02.683Z,1015.49
2018-09-17T02:03:02.696Z,1015.48
2018-09-17T02:05:02.645Z,1015.48
2018-09-17T02:06:03.119Z,1015.43
2018-09-17T02:08:03.663Z,1015.40
2018-09-17T02:09:03.624Z,1015.42
2018-09-17T02:11:04.009Z,1015.35
2018-09-17T02:12:03.508Z,1015.35
2018-09-17T02:14:03.948Z,1015.32
2018-09-17T02:15:04.496Z,1015.33
2018-09-17T02:17:04.397Z,1015.34
2018-09-17T02:18:04.389Z,1015.29
2018-09-17T02:20:04.977Z,1015.36
2018-09-17T02:21:04.990Z,1015.37
2018-09-17T02:23:06.412Z,1015.34
2018-09-17T02:24:05.954Z,1015.35
2018-09-17T02:26:06.389Z,1015.29
2018-09-17T02:27:05.849Z,1015.27
2018-09-17T02:29:07.316Z,1015.17
2018-09-17T02:30:06.303Z,1015.19
2018-09-17T02:32:06.834Z,1015.18
2018-09-17T02:33:06.745Z,1015.18
2018-09-17T02:35:04.718Z,1015.19
2018-09-17T02:36:04.728Z,1015.26
2018-09-17T02:38:02.620Z,1015.23
2018-09-17T02:39:02.647Z,1015.21
2018-09-17T02:41:04.092Z,1015.20
2018-09-17T02:42:03.585Z,1015.19
2018-09-17T02:44:04.013Z,1015.21
2018-09-17T02:45:03.526Z,1015.15
2018-09-17T02:47:04.038Z,1015.16
2018-09-17T02:48:03.966Z,1015.18
2018-09-17T02:50:04.952Z,1015.26
2018-09-17T02:51:04.406Z,1015.27
2018-09-17T02:53:05.869Z,1015.27
2018-09-17T02:54:05.383Z,1015.27
2018-09-17T02:56:06.293Z,1015.27
2018-09-17T02:57:05.299Z,1015.22
2018-09-17T02:59:05.757Z,1015.25
2018-09-17T03:00:06.273Z,1015.21
2018-09-17T03:02:06.195Z,1015.18
2018-09-17T03:03:06.171Z,1015.20
2018-09-17T03:05:07.668Z,1015.20
2018-09-17T03:06:06.653Z,1015.22
2018-09-17T03:08:07.144Z,1015.15
2018-09-17T03:09:07.125Z,1015.22
2018-09-17T03:11:07.535Z,1015.23
2018-09-17T03:12:08.140Z,1015.25
2018-09-17T03:14:08.450Z,1015.20
2018-09-17T03:15:08.488Z,1015.18
2018-09-17T03:17:08.919Z,1015.19
2018-09-17T03:18:08.876Z,1015.18
2018-09-17T03:20:07.811Z,1015.20
2018-09-17T03:21:07.408Z,1015.23
2018-09-17T03:23:05.420Z,1015.15
2018-09-17T03:24:04.951Z,1015.15
2018-09-17T03:26:04.831Z,1015.23
2018-09-17T03:27:05.338Z,1015.25
2018-09-17T03:29:05.833Z,1015.37
2018-09-17T03:30:05.798Z,1015.36
2018-09-17T03:32:05.751Z,1015.37
2018-09-17T03:33:06.213Z,1015.37
2018-09-17T03:35:07.650Z,1015.38
2018-09-17T03:36:06.653Z,1015.36
2018-09-17T03:38:05.580Z,1015.47
2018-09-17T03:39:04.085Z,1015.46
2018-09-17T03:41:04.532Z,1015.45
2018-09-17T03:42:05.030Z,1015.51
2018-09-17T03:44:04.972Z,1015.51
2018-09-17T03:45:05.012Z,1015.55
2018-09-17T03:47:06.390Z,1015.52
2018-09-17T03:48:05.366Z,1015.53
2018-09-17T03:50:06.340Z,1015.50
2018-09-17T03:51:05.865Z,1015.47
2018-09-17T03:53:06.785Z,1015.49
2018-09-17T03:54:06.294Z,1015.51
2018-09-17T03:56:06.746Z,1015.57
2018-09-17T03:57:06.774Z,1015.58
2018-09-17T03:59:08.702Z,1015.55
2018-09-17T04:00:07.977Z,1015.55
2018-09-17T04:02:08.388Z,1015.51
2018-09-17T04:03:08.941Z,1015.56
2018-09-17T04:05:08.900Z,1015.60
2018-09-17T04:06:08.842Z,1015.58
2018-09-17T04:08:09.778Z,1015.61
2018-09-17T04:09:09.807Z,1015.58
2018-09-17T04:11:10.258Z,1015.59
2018-09-17T04:12:10.219Z,1015.58
2018-09-17T04:14:11.725Z,1015.57
2018-09-17T04:15:10.200Z,1015.58
2018-09-17T04:17:10.662Z,1015.50
2018-09-17T04:18:11.127Z,1015.52
2018-09-17T04:20:11.052Z,1015.55
2018-09-17T04:21:12.565Z,1015.57
2018-09-17T04:23:12.006Z,1015.60
2018-09-17T04:24:11.497Z,1015.58
2018-09-17T04:26:12.483Z,1015.55
2018-09-17T04:27:11.947Z,1015.56
2018-09-17T04:29:12.411Z,1015.49
2018-09-17T04:30:12.385Z,1015.47
2018-09-17T04:32:13.328Z,1015.40
2018-09-17T04:33:12.836Z,1015.35
2018-09-17T04:35:13.762Z,1015.24
2018-09-17T04:36:13.257Z,1015.26
2018-09-17T04:38:14.223Z,1015.27
2018-09-17T04:39:13.704Z,1015.29
2018-09-17T04:41:14.142Z,1015.30
2018-09-17T04:42:14.643Z,1015.36
2018-09-17T04:44:14.606Z,1015.43
2018-09-17T04:45:14.602Z,1015.47
2018-09-17T04:47:15.021Z,1015.54
2018-09-17T04:48:15.014Z,1015.52
2018-09-17T04:50:15.468Z,1015.51
2018-09-17T04:51:15.430Z,1015.48
2018-09-17T04:53:15.882Z,1015.44
2018-09-17T04:54:15.869Z,1015.41
2018-09-17T04:56:16.398Z,1015.43
2018-09-17T04:57:16.459Z,1015.44
2018-09-17T04:59:14.475Z,1015.47
2018-09-17T05:00:15.268Z,1015.48
2018-09-17T05:02:15.479Z,1015.48
2018-09-17T05:03:14.887Z,1015.52
2018-09-17T05:05:15.350Z,1015.50
2018-09-17T05:06:15.859Z,1015.51
2018-09-17T05:08:13.373Z,1015.53
2018-09-17T05:09:14.329Z,1015.50
2018-09-17T05:11:14.645Z,1015.49
2018-09-17T05:12:14.641Z,1015.50
2018-09-17T05:14:14.624Z,1015.51
2018-09-17T05:15:14.630Z,1015.52
2018-09-17T05:17:14.586Z,1015.51
2018-09-17T05:18:15.267Z,1015.52
2018-09-17T05:20:15.043Z,1015.54
2018-09-17T05:21:16.008Z,1015.54
2018-09-17T05:23:23.492Z,1015.59
2018-09-17T05:24:20.717Z,1015.59
2018-09-17T05:26:24.243Z,1015.53
2018-09-17T05:27:23.477Z,1015.57
2018-09-17T05:29:25.954Z,1015.55
2018-09-17T05:30:26.295Z,1015.51
2018-09-17T05:32:25.478Z,1015.55
2018-09-17T05:33:26.405Z,1015.55
2018-09-17T05:35:27.359Z,1015.63
2018-09-17T05:36:25.960Z,1015.69
2018-09-17T05:38:29.305Z,1015.68
2018-09-17T05:39:28.298Z,1015.75
2018-09-17T05:41:28.798Z,1015.74
2018-09-17T05:42:28.806Z,1015.71
2018-09-17T05:44:29.392Z,1015.71
2018-09-17T05:45:29.230Z,1015.68
2018-09-17T05:47:30.684Z,1015.68
2018-09-17T05:48:30.742Z,1015.69
2018-09-17T05:50:30.222Z,1015.72
2018-09-17T05:51:30.240Z,1015.73
2018-09-17T05:53:31.178Z,1015.72
2018-09-17T05:54:31.656Z,1015.65
2018-09-17T05:56:33.620Z,1015.67
2018-09-17T05:57:32.108Z,1015.68
2018-09-17T05:59:28.604Z,1015.68
2018-09-17T06:00:28.137Z,1015.72
2018-09-17T06:02:27.542Z,1015.74
2018-09-17T06:03:27.572Z,1015.71
2018-09-17T06:05:28.567Z,1015.72
2018-09-17T06:06:29.496Z,1015.67
2018-09-17T06:08:26.434Z,1015.67
2018-09-17T06:09:26.075Z,1015.68
2018-09-17T06:11:25.036Z,1015.72
2018-09-17T06:12:24.584Z,1015.67
2018-09-17T06:14:22.439Z,1015.75
2018-09-17T06:15:21.914Z,1015.74
2018-09-17T06:17:22.968Z,1015.70
2018-09-17T06:18:22.364Z,1015.72
2018-09-17T06:20:22.825Z,1015.71
2018-09-17T06:21:24.309Z,1015.70
2018-09-17T06:23:23.850Z,1015.74
2018-09-17T06:24:23.275Z,1015.73
2018-09-17T06:26:21.245Z,1015.73
2018-09-17T06:27:21.231Z,1015.77
2018-09-17T06:29:22.697Z,1015.75
2018-09-17T06:30:22.699Z,1015.79
2018-09-17T06:32:22.207Z,1015.86
2018-09-17T06:33:20.822Z,1015.88
2018-09-17T06:35:19.791Z,1015.91
2018-09-17T06:36:20.291Z,1015.90
2018-09-17T06:38:17.830Z,1015.93
2018-09-17T06:39:18.686Z,1015.94
2018-09-17T06:41:14.301Z,1016.00
2018-09-17T06:42:13.772Z,1015.93
2018-09-17T06:44:13.213Z,1015.97
2018-09-17T06:45:11.876Z,1015.95
2018-09-17T06:47:10.829Z,1015.97
2018-09-17T06:48:09.978Z,1015.97
2018-09-17T06:50:07.963Z,1015.99
2018-09-17T06:51:08.975Z,1015.97
2018-09-17T06:53:05.891Z,1016.03
2018-09-17T06:54:05.913Z,1016.01
2018-09-17T06:56:03.836Z,1016.08
2018-09-17T06:57:04.383Z,1016.11
2018-09-17T06:58:59.796Z,1016.13
2018-09-17T07:00:00.288Z,1016.21
2018-09-17T07:01:55.708Z,1016.19
2018-09-17T07:02:55.718Z,1016.21
2018-09-17T07:04:52.164Z,1016.21
2018-09-17T07:05:51.668Z,1016.23
2018-09-17T07:07:48.134Z,1016.20
2018-09-17T07:08:49.037Z,1016.25
2018-09-17T07:10:43.563Z,1016.18
2018-09-17T07:11:43.579Z,1016.19
2018-09-17T07:13:44.536Z,1016.21
2018-09-17T07:14:44.995Z,1016.23
2018-09-17T07:16:42.869Z,1016.26
2018-09-17T07:17:41.945Z,1016.26
2018-09-17T07:19:40.885Z,1016.29
2018-09-17T07:20:39.884Z,1016.29
2018-09-17T07:22:37.836Z,1016.26
2018-09-17T07:23:37.823Z,1016.25
2018-09-17T07:25:38.267Z,1016.19
2018-09-17T07:29:14.847Z,1016.18
2018-09-17T07:30:12.758Z,1016.20
2018-09-17T07:32:13.229Z,1016.14
2018-09-17T07:33:13.211Z,1016.12
2018-09-17T07:35:09.990Z,1016.13
2018-09-17T07:36:10.005Z,1016.13
2018-09-17T07:38:09.448Z,1016.07
2018-09-17T07:39:08.093Z,1016.07
2018-09-17T07:41:04.549Z,1016.07
2018-09-17T07:42:04.091Z,1016.10
2018-09-17T07:44:00.492Z,1016.09
2018-09-17T07:45:00.489Z,1016.10
2018-09-17T07:46:56.526Z,1016.05
2018-09-17T07:47:57.012Z,1016.04
2018-09-17T07:49:54.403Z,1016.03
2018-09-17T07:50:53.854Z,1016.02
2018-09-17T07:52:54.381Z,1016.00
2018-09-17T07:53:54.351Z,1016.03
2018-09-17T07:55:53.283Z,1016.05
2018-09-17T07:56:52.291Z,1016.00
2018-09-17T07:58:50.192Z,1016.01
2018-09-17T07:59:50.194Z,1015.97
2018-09-17T08:01:46.159Z,1015.98
2018-09-17T08:02:46.147Z,1015.98
2018-09-17T08:04:43.089Z,1015.97
2018-09-17T08:05:42.123Z,1015.94
2018-09-17T08:07:44.596Z,1015.94
2018-09-17T08:08:42.531Z,1015.92
2018-09-17T08:10:40.617Z,1015.92
2018-09-17T08:11:40.645Z,1015.90
2018-09-17T08:13:38.605Z,1015.89
2018-09-17T08:14:38.577Z,1015.88
2018-09-17T08:16:37.072Z,1015.87
2018-09-17T08:17:38.034Z,1015.89
2018-09-17T08:19:33.061Z,1015.93
2018-09-17T08:22:18.422Z,1015.94
2018-09-17T08:23:04.264Z,1015.90
2018-09-17T08:25:02.213Z,1015.89
2018-09-17T08:26:02.203Z,1015.91
2018-09-17T08:28:00.161Z,1015.92
2018-09-17T08:29:00.178Z,1015.94
2018-09-17T08:30:59.619Z,1015.94
2018-09-17T08:31:58.614Z,1015.98
2018-09-17T08:33:59.545Z,1015.96
2018-09-17T08:34:58.602Z,1015.96
2018-09-17T08:36:57.033Z,1015.97
2018-09-17T08:37:57.010Z,1015.92
2018-09-17T08:39:53.952Z,1015.97
2018-09-17T08:40:52.983Z,1015.97
2018-09-17T08:42:48.889Z,1015.97
2018-09-17T08:43:48.399Z,1015.92
2018-09-17T08:45:45.362Z,1015.93
2018-09-17T08:46:44.828Z,1015.89
2018-09-17T08:48:44.806Z,1015.87
2018-09-17T08:49:46.286Z,1015.86
2018-09-17T08:51:46.283Z,1015.79
2018-09-17T08:52:45.321Z,1015.80
2018-09-17T08:54:43.386Z,1015.77
2018-09-17T08:55:43.355Z,1015.75
2018-09-17T08:57:42.307Z,1015.75
2018-09-17T08:58:41.305Z,1015.72
2018-09-17T09:00:40.258Z,1015.70
2018-09-17T09:01:39.256Z,1015.70
2018-09-17T09:03:38.187Z,1015.69
2018-09-17T09:04:38.193Z,1015.71
2018-09-17T09:06:37.801Z,1015.66
2018-09-17T09:07:37.824Z,1015.64
2018-09-17T09:09:36.789Z,1015.64
2018-09-17T09:10:35.884Z,1015.64
2018-09-17T09:12:34.010Z,1015.62
2018-09-17T09:13:34.037Z,1015.67
2018-09-17T09:15:32.968Z,1015.71
2018-09-17T09:16:31.954Z,1015.66
2018-09-17T09:18:29.419Z,1015.70
2018-09-17T09:19:29.431Z,1015.70
2018-09-17T09:21:25.865Z,1015.69
2018-09-17T09:22:26.779Z,1015.70
2018-09-17T09:24:22.817Z,1015.66
2018-09-17T09:25:23.297Z,1015.67
2018-09-17T09:27:18.725Z,1015.63
2018-09-17T09:28:19.750Z,1015.60
2018-09-17T09:30:15.194Z,1015.55
2018-09-17T09:31:14.680Z,1015.54
2018-09-17T09:33:12.693Z,1015.55
2018-09-17T09:34:12.636Z,1015.54
2018-09-17T09:36:08.622Z,1015.52
2018-09-17T09:37:08.614Z,1015.51
2018-09-17T09:39:04.572Z,1015.47
2018-09-17T09:40:04.557Z,1015.49
2018-09-17T09:42:02.504Z,1015.42
2018-09-17T09:43:03.027Z,1015.42
2018-09-17T09:45:00.954Z,1015.36
2018-09-17T09:46:00.648Z,1015.42
2018-09-17T09:47:58.611Z,1015.39
2018-09-17T09:48:58.586Z,1015.38
2018-09-17T09:50:56.558Z,1015.39
2018-09-17T09:51:56.556Z,1015.42
2018-09-17T09:53:54.513Z,1015.38
2018-09-17T09:54:54.503Z,1015.36
2018-09-17T09:56:53.947Z,1015.40
2018-09-17T09:57:53.452Z,1015.36
2018-09-17T09:59:48.540Z,1015.35
2018-09-17T10:00:48.536Z,1015.33
2018-09-17T10:02:49.006Z,1015.32
2018-09-17T10:03:49.006Z,1015.25
2018-09-17T10:05:47.476Z,1015.25
2018-09-17T10:06:46.956Z,1015.26
2018-09-17T10:08:45.413Z,1015.29
2018-09-17T10:09:45.063Z,1015.25
2018-09-17T10:11:44.537Z,1015.25
2018-09-17T10:12:43.017Z,1015.23
2018-09-17T10:14:41.998Z,1015.21
2018-09-17T10:15:41.023Z,1015.23
2018-09-17T10:17:39.489Z,1015.21
2018-09-17T10:18:39.140Z,1015.16
2018-09-17T10:20:37.605Z,1015.15
2018-09-17T10:21:37.087Z,1015.13
2018-09-17T10:23:33.546Z,1015.14
2018-09-17T10:24:33.039Z,1015.11
2018-09-17T10:26:29.006Z,1015.11
2018-09-17T10:27:30.013Z,1015.12
2018-09-17T10:29:24.964Z,1015.06
2018-09-17T10:30:25.480Z,1015.04
2018-09-17T10:32:22.883Z,1014.95
2018-09-17T10:33:23.403Z,1014.93
2018-09-17T10:35:20.974Z,1014.83
2018-09-17T10:36:21.010Z,1014.85
2018-09-17T10:38:16.964Z,1014.79
2018-09-17T10:39:17.053Z,1014.78
2018-09-17T10:41:14.968Z,1014.76
2018-09-17T10:42:15.933Z,1014.79
2018-09-17T10:44:17.775Z,1014.82
2018-09-17T10:45:16.939Z,1014.78
2018-09-17T10:47:16.940Z,1014.75
2018-09-17T10:48:19.481Z,1014.77
2018-09-17T10:50:15.509Z,1014.76
2018-09-17T10:51:15.531Z,1014.77
2018-09-17T10:53:21.874Z,1014.74
2018-09-17T10:54:19.466Z,1014.74
2018-09-17T10:56:27.490Z,1014.76
2018-09-17T10:57:24.124Z,1014.74
2018-09-17T10:59:56.860Z,1014.74
2018-09-17T11:00:57.877Z,1014.73
2018-09-17T11:03:07.958Z,1014.68
2018-09-17T11:04:23.081Z,1014.72
2018-09-17T11:06:08.654Z,1014.66
2018-09-17T11:07:09.662Z,1014.68
2018-09-17T11:11:25.209Z,1014.60
2018-09-17T11:12:25.604Z,1014.59
2018-09-17T11:14:28.553Z,1014.55
2018-09-17T11:15:26.388Z,1014.53
2018-09-17T11:17:43.219Z,1014.49
2018-09-17T11:19:00.590Z,1014.49
2018-09-17T11:20:43.222Z,1014.54
2018-09-17T11:21:42.845Z,1014.49
2018-09-17T11:23:46.569Z,1014.46
2018-09-17T11:24:58.471Z,1014.41
2018-09-17T11:26:46.014Z,1014.38
2018-09-17T11:27:45.042Z,1014.40
2018-09-17T11:29:50.245Z,1014.36
2018-09-17T11:30:46.992Z,1014.35
2018-09-17T11:32:53.463Z,1014.36
2018-09-17T11:34:09.157Z,1014.28
2018-09-17T11:36:10.478Z,1014.29
2018-09-17T11:36:54.935Z,1014.26
2018-09-17T11:42:22.040Z,1014.25
2018-09-17T11:44:09.030Z,1014.22
2018-09-17T11:45:34.323Z,1014.20
2018-09-17T11:48:16.166Z,1014.14
2018-09-17T11:49:15.544Z,1014.12
2018-09-17T11:51:15.609Z,1014.13
2018-09-17T11:52:18.592Z,1014.13
2018-09-17T11:54:16.582Z,1014.11
2018-09-17T11:55:18.046Z,1014.15
2018-09-17T11:57:19.390Z,1014.14
2018-09-17T11:58:16.950Z,1014.11
2018-09-17T12:00:19.977Z,1014.08
2018-09-17T12:01:21.089Z,1014.07
2018-09-17T12:03:44.120Z,1014.08
2018-09-17T12:05:31.944Z,1014.08
2018-09-17T12:07:23.823Z,1014.07
2018-09-17T12:09:49.344Z,1014.05
2018-09-17T12:12:26.062Z,1014.05
2018-09-17T12:13:25.302Z,1014.02
2018-09-17T12:15:42.712Z,1013.99
2018-09-17T12:20:22.744Z,1013.90
2018-09-17T12:21:24.278Z,1013.90
2018-09-17T12:23:30.965Z,1013.88
2018-09-17T12:26:28.508Z,1013.87
2018-09-17T12:27:28.485Z,1013.87
2018-09-17T12:29:24.479Z,1013.86
2018-09-17T12:30:24.374Z,1013.83
2018-09-17T12:32:21.886Z,1013.82
2018-09-17T12:33:20.386Z,1013.78
2018-09-17T12:35:17.233Z,1013.77
2018-09-17T12:36:16.805Z,1013.79
2018-09-17T12:38:14.565Z,1013.77
2018-09-17T12:39:14.527Z,1013.77
2018-09-17T12:41:10.983Z,1013.78
2018-09-17T12:42:10.473Z,1013.80
2018-09-17T12:44:11.450Z,1013.79
2018-09-17T12:45:10.977Z,1013.78
2018-09-17T12:47:09.445Z,1013.76
2018-09-17T12:48:09.158Z,1013.74
2018-09-17T12:50:05.045Z,1013.72
2018-09-17T12:51:05.062Z,1013.70
2018-09-17T12:53:01.045Z,1013.63
2018-09-17T12:54:01.010Z,1013.60
2018-09-17T12:55:57.964Z,1013.57
2018-09-17T12:56:56.972Z,1013.53
2018-09-17T12:58:53.052Z,1013.52
2018-09-17T12:59:53.925Z,1013.53
2018-09-17T13:01:50.924Z,1013.48
2018-09-17T13:02:52.442Z,1013.46
2018-09-17T13:04:48.865Z,1013.49
2018-09-17T13:05:48.848Z,1013.46
2018-09-17T13:07:47.865Z,1013.52
2018-09-17T13:08:47.001Z,1013.48
2018-09-17T13:10:42.996Z,1013.44
2018-09-17T13:11:43.024Z,1013.45
2018-09-17T13:13:41.976Z,1013.41
2018-09-17T13:14:41.029Z,1013.40
2018-09-17T13:16:39.456Z,1013.39
2018-09-17T13:17:38.523Z,1013.38
2018-09-17T13:19:34.920Z,1013.35
2018-09-17T13:20:33.865Z,1013.36
2018-09-17T13:22:32.014Z,1013.29
2018-09-17T13:23:32.009Z,1013.29
2018-09-17T13:25:30.898Z,1013.24
2018-09-17T13:26:30.153Z,1013.21
2018-09-17T13:28:28.615Z,1013.22
2018-09-17T13:29:29.180Z,1013.19
2018-09-17T13:31:26.255Z,1013.20
2018-09-17T13:32:26.252Z,1013.17
2018-09-17T13:34:24.177Z,1013.20
2018-09-17T13:35:24.803Z,1013.13
2018-09-17T13:37:22.162Z,1013.16
2018-09-17T13:38:22.152Z,1013.14
2018-09-17T13:40:20.189Z,1013.10
2018-09-17T13:41:20.126Z,1013.08
2018-09-17T13:43:18.121Z,1013.07
2018-09-17T13:44:19.184Z,1013.05
2018-09-17T13:46:16.588Z,1013.05
2018-09-17T13:47:16.234Z,1013.03
2018-09-17T13:49:16.687Z,1013.01
2018-09-17T13:50:16.691Z,1013.01
2018-09-17T13:52:15.130Z,1012.96
2018-09-17T13:53:14.828Z,1012.95
2018-09-17T13:55:11.692Z,1012.94
2018-09-17T13:56:11.268Z,1012.95
2018-09-17T13:58:06.782Z,1012.93
2018-09-17T13:59:06.718Z,1012.95
2018-09-17T14:01:08.112Z,1012.93
2018-09-17T14:02:07.200Z,1012.92
2018-09-17T14:04:13.316Z,1012.91
2018-09-17T14:05:03.666Z,1012.80
2018-09-17T14:07:00.684Z,1012.83
2018-09-17T14:08:00.216Z,1012.81
2018-09-17T14:09:56.189Z,1012.78
2018-09-17T14:10:56.130Z,1012.75
2018-09-17T14:12:52.597Z,1012.76
2018-09-17T14:13:52.136Z,1012.76
2018-09-17T14:15:48.103Z,1012.71
2018-09-17T14:16:48.054Z,1012.71
2018-09-17T14:18:46.170Z,1012.67
2018-09-17T14:19:46.190Z,1012.65
2018-09-17T14:21:49.373Z,1012.62
2018-09-17T14:22:44.292Z,1012.62
2018-09-17T14:24:46.693Z,1012.61
2018-09-17T14:25:44.807Z,1012.61
2018-09-17T14:27:43.814Z,1012.55
2018-09-17T14:28:44.804Z,1012.55
2018-09-17T14:30:42.790Z,1012.52
2018-09-17T14:31:41.773Z,1012.49
2018-09-17T14:33:38.271Z,1012.44
2018-09-17T14:34:37.724Z,1012.44
2018-09-17T14:36:35.889Z,1012.41
2018-09-17T14:37:37.650Z,1012.40
2018-09-17T14:39:31.893Z,1012.36
2018-09-17T14:40:32.388Z,1012.34
2018-09-17T14:42:27.808Z,1012.32
2018-09-17T14:43:27.799Z,1012.31
2018-09-17T14:45:23.831Z,1012.27
2018-09-17T14:46:24.334Z,1012.23
2018-09-17T14:48:19.722Z,1012.24
2018-09-17T14:49:19.715Z,1012.21
2018-09-17T14:51:18.210Z,1012.18
2018-09-17T14:52:18.191Z,1012.13
2018-09-17T14:54:16.697Z,1012.10
2018-09-17T14:55:15.837Z,1012.12
2018-09-17T14:57:12.255Z,1012.06
2018-09-17T14:58:11.832Z,1012.06
2018-09-17T15:00:07.735Z,1012.01
2018-09-17T15:01:07.796Z,1012.02
2018-09-17T15:03:04.182Z,1011.98
2018-09-17T15:04:03.709Z,1012.00
2018-09-17T15:06:00.663Z,1012.00
2018-09-17T15:07:00.134Z,1011.96
2018-09-17T15:08:55.698Z,1011.96
2018-09-17T15:09:55.653Z,1011.91
2018-09-17T15:11:56.094Z,1011.92
2018-09-17T15:12:57.025Z,1011.88
2018-09-17T15:14:52.058Z,1011.87
2018-09-17T15:15:52.059Z,1011.88
2018-09-17T15:17:48.992Z,1011.83
2018-09-17T15:18:48.040Z,1011.82
2018-09-17T15:20:46.138Z,1011.77
2018-09-17T15:21:46.159Z,1011.76
2018-09-17T15:23:42.198Z,1011.76
2018-09-17T15:24:43.130Z,1011.74
2018-09-17T15:26:38.122Z,1011.74
2018-09-17T15:27:39.166Z,1011.75
2018-09-17T15:29:34.594Z,1011.69
2018-09-17T15:30:34.074Z,1011.73
2018-09-17T15:32:30.603Z,1011.71
2018-09-17T15:33:30.057Z,1011.73
2018-09-17T15:35:25.980Z,1011.73
2018-09-17T15:36:26.516Z,1011.69
2018-09-17T15:38:24.029Z,1011.73
2018-09-17T15:39:24.055Z,1011.71
2018-09-17T15:41:20.569Z,1011.66
2018-09-17T15:42:20.430Z,1011.71
2018-09-17T15:44:16.897Z,1011.64
2018-09-17T15:45:15.876Z,1011.62
2018-09-17T15:47:12.337Z,1011.59
2018-09-17T15:48:11.877Z,1011.57
2018-09-17T15:50:10.335Z,1011.54
2018-09-17T15:51:11.354Z,1011.51
2018-09-17T15:53:11.221Z,1011.52
2018-09-17T15:54:10.232Z,1011.50
2018-09-17T15:56:09.753Z,1011.49
2018-09-17T15:57:09.173Z,1011.49
2018-09-17T15:59:08.896Z,1011.42
2018-09-17T16:00:08.846Z,1011.42
2018-09-17T16:02:06.747Z,1011.37
2018-09-17T16:03:06.904Z,1011.33
2018-09-17T16:05:04.775Z,1011.35
2018-09-17T16:06:04.780Z,1011.33
2018-09-17T16:08:02.717Z,1011.31
2018-09-17T16:09:02.693Z,1011.30
2018-09-17T16:11:01.596Z,1011.31
2018-09-17T16:12:00.691Z,1011.29
2018-09-17T16:13:58.696Z,1011.30
2018-09-17T16:14:58.653Z,1011.29
2018-09-17T16:16:56.614Z,1011.27
2018-09-17T16:17:56.621Z,1011.26
2018-09-17T16:19:55.077Z,1011.25
2018-09-17T16:20:54.669Z,1011.24
2018-09-17T16:22:55.646Z,1011.26
2018-09-17T16:23:55.156Z,1011.24
2018-09-17T16:25:53.134Z,1011.25
2018-09-17T16:26:53.138Z,1011.27
2018-09-17T16:28:51.070Z,1011.22
2018-09-17T16:29:51.632Z,1011.26
2018-09-17T16:31:49.075Z,1011.23
2018-09-17T16:32:50.071Z,1011.23
2018-09-17T16:34:47.960Z,1011.18
2018-09-17T16:35:48.111Z,1011.17
2018-09-17T16:37:45.709Z,1011.18
2018-09-17T16:38:45.654Z,1011.17
2018-09-17T16:40:45.122Z,1011.16
2018-09-17T16:41:44.725Z,1011.18
2018-09-17T16:43:45.070Z,1011.19
2018-09-17T16:44:44.556Z,1011.20
2018-09-17T16:46:46.020Z,1011.15
2018-09-17T16:47:45.017Z,1011.17
2018-09-17T16:49:42.958Z,1011.18
2018-09-17T16:50:42.941Z,1011.18
2018-09-17T16:52:41.525Z,1011.16
2018-09-17T16:53:41.995Z,1011.15
2018-09-17T16:55:40.098Z,1011.14
2018-09-17T16:56:39.045Z,1011.17
2018-09-17T16:58:37.477Z,1011.14
2018-09-17T16:59:37.045Z,1011.12
2018-09-17T17:01:34.954Z,1011.14
2018-09-17T17:02:35.499Z,1011.16
2018-09-17T17:04:33.941Z,1011.15
2018-09-17T17:05:33.121Z,1011.17
2018-09-17T17:07:33.562Z,1011.15
2018-09-17T17:08:34.040Z,1011.13
2018-09-17T17:10:34.044Z,1011.11
2018-09-17T17:11:35.140Z,1011.07
2018-09-17T17:13:35.114Z,1011.09
2018-09-17T17:14:34.576Z,1011.05
2018-09-17T17:16:34.995Z,1011.03
2018-09-17T17:17:36.882Z,1011.02
2018-09-17T17:19:39.619Z,1011.02
2018-09-17T17:20:40.466Z,1011.02
2018-09-17T17:22:36.543Z,1011.00
2018-09-17T17:23:36.544Z,1010.96
2018-09-17T17:25:40.210Z,1010.97
2018-09-17T17:26:41.003Z,1010.98
2018-09-17T17:28:41.740Z,1010.93
2018-09-17T17:29:41.703Z,1010.95
2018-09-17T17:31:41.833Z,1010.92
2018-09-17T17:32:41.308Z,1010.92
2018-09-17T17:34:42.823Z,1010.92
2018-09-17T17:35:43.413Z,1010.90
2018-09-17T17:37:43.117Z,1010.93
2018-09-17T17:38:43.085Z,1010.89
2018-09-17T17:40:44.715Z,1010.93
2018-09-17T17:41:43.672Z,1010.92
2018-09-17T17:43:44.084Z,1010.89
2018-09-17T17:44:44.175Z,1010.88
2018-09-17T17:46:44.700Z,1010.93
2018-09-17T17:47:45.668Z,1010.94
2018-09-17T17:49:43.059Z,1010.93
2018-09-17T17:50:42.679Z,1010.91
2018-09-17T17:52:45.519Z,1010.92
2018-09-17T17:53:43.452Z,1010.90
2018-09-17T17:55:44.924Z,1010.91
2018-09-17T17:56:43.476Z,1010.91
2018-09-17T17:58:43.846Z,1010.93
2018-09-17T17:59:43.818Z,1010.97
2018-09-17T18:01:44.316Z,1010.99
2018-09-17T18:02:44.319Z,1010.99
2018-09-17T18:04:45.271Z,1011.00
2018-09-17T18:05:45.774Z,1010.99
2018-09-17T18:07:47.295Z,1010.97
2018-09-17T18:08:45.278Z,1010.99
2018-09-17T18:10:50.783Z,1011.04
2018-09-17T18:11:51.650Z,1011.05
2018-09-17T18:13:51.715Z,1011.02
2018-09-17T18:14:52.279Z,1011.07
2018-09-17T18:16:49.209Z,1011.04
2018-09-17T18:17:49.193Z,1011.08
2018-09-17T18:19:51.610Z,1011.05
2018-09-17T18:20:51.202Z,1011.05
2018-09-17T18:22:51.597Z,1011.07
2018-09-17T18:23:50.056Z,1011.05
2018-09-17T18:25:51.053Z,1011.00